Time;durP1;ratioP1;P1;durP2;ratioP2;P2;SDS_P1;SDS_P2;PMS_P1;PMS_P2;Temp;Humidity;BMP_temperature;BMP_pressure;BME280_temperature;BME280_humidity;BME280_pressure;Samples;Min_cycle;Max_cycle;Signal;HPM_P1;HPM_P2
2023/03/11 00:02:17;;;;;;;1.65;0.70;;;2.10;99.90;;;;;;5133205;27;20137;-77
2023/03/11 00:04:43;;;;;;;3.30;1.08;;;1.20;99.90;;;;;;5107068;27;20395;-78
2023/03/11 00:07:10;;;;;;;1.58;0.70;;;1.20;99.90;;;;;;5118464;27;20479;-78
2023/03/11 00:09:35;;;;;;;1.90;1.15;;;1.20;99.90;;;;;;5137118;27;20089;-79
2023/03/11 00:12:01;;;;;;;2.83;0.90;;;1.50;99.90;;;;;;5098580;27;20129;-78
2023/03/11 00:14:27;;;;;;;4.38;0.75;;;1.10;99.90;;;;;;5143083;27;20165;-78
2023/03/11 00:16:53;;;;;;;2.38;0.70;;;1.10;99.90;;;;;;5101123;27;20086;-79
2023/03/11 00:19:19;;;;;;;3.13;1.02;;;1.10;99.90;;;;;;5135070;27;20061;-79
2023/03/11 00:21:44;;;;;;;2.38;0.68;;;1.10;99.90;;;;;;5116468;27;21163;-79
2023/03/11 00:24:10;;;;;;;5.28;0.85;;;2.50;99.90;;;;;;5134784;27;20046;-78
2023/03/11 00:26:36;;;;;;;3.15;0.77;;;1.50;99.90;;;;;;5133946;27;20498;-78
2023/03/11 00:29:02;;;;;;;4.43;0.80;;;1.40;99.90;;;;;;5118613;27;20042;-79
2023/03/11 00:31:28;;;;;;;5.15;0.80;;;0.90;99.90;;;;;;5116280;27;20047;-78
2023/03/11 00:33:56;;;;;;;2.17;0.90;;;1.40;99.90;;;;;;5106423;27;20053;-80
2023/03/11 00:36:23;;;;;;;3.03;0.70;;;1.20;99.90;;;;;;5131674;27;20057;-80
2023/03/11 00:38:50;;;;;;;8.80;0.85;;;1.20;99.90;;;;;;5118281;27;20042;-78
2023/03/11 00:41:15;;;;;;;4.28;0.88;;;1.20;99.90;;;;;;5133320;27;20043;-78
2023/03/11 00:43:41;;;;;;;4.15;1.10;;;1.50;99.90;;;;;;5133264;27;20049;-79
2023/03/11 00:46:08;;;;;;;15.43;1.45;;;1.60;99.90;;;;;;5100730;27;20106;-77
2023/03/11 00:48:34;;;;;;;2.65;0.93;;;1.20;99.90;;;;;;5133410;27;20053;-78
2023/03/11 00:50:59;;;;;;;3.42;0.85;;;1.30;99.90;;;;;;5118159;27;20038;-77
2023/03/11 00:53:25;;;;;;;0.60;0.50;;;2.40;99.90;;;;;;5102660;27;20483;-77
2023/03/11 00:55:51;;;;;;;2.25;0.70;;;1.30;99.90;;;;;;5099880;27;20074;-78
2023/03/11 00:58:17;;;;;;;6.40;1.05;;;1.40;99.90;;;;;;5134386;27;20124;-78
2023/03/11 01:00:43;;;;;;;3.05;1.00;;;1.20;99.90;;;;;;5132419;27;21629;-81
2023/03/11 01:03:09;;;;;;;2.38;0.70;;;1.20;99.90;;;;;;5135088;27;20535;-79
2023/03/11 01:05:35;;;;;;;1.98;0.70;;;1.20;99.90;;;;;;5116015;27;20499;-79
2023/03/11 01:08:01;;;;;;;5.82;0.90;;;1.90;99.90;;;;;;5124552;27;20070;-78
2023/03/11 01:10:29;;;;;;;2.13;0.80;;;1.10;99.90;;;;;;5118751;27;20035;-79
2023/03/11 01:12:55;;;;;;;3.38;0.80;;;1.20;99.90;;;;;;5131143;27;20510;-80
2023/03/11 01:15:33;;;;;;;4.38;0.80;;;-0.50;99.90;;;;;;5102202;27;20038;-79
2023/03/11 01:17:59;;;;;;;2.38;0.60;;;1.00;99.90;;;;;;5116436;27;20069;-79
2023/03/11 01:20:25;;;;;;;2.25;0.80;;;1.40;99.90;;;;;;5122622;27;20060;-79
2023/03/11 01:22:50;;;;;;;5.78;1.08;;;1.40;99.90;;;;;;5119734;27;20053;-79
2023/03/11 01:25:18;;;;;;;1.70;0.80;;;1.30;99.90;;;;;;5105145;27;20050;-79
2023/03/11 01:27:45;;;;;;;2.92;0.80;;;1.00;99.90;;;;;;5130822;27;20520;-79
2023/03/11 01:30:15;;;;;;;2.97;0.80;;;1.20;99.90;;;;;;5130478;27;20062;-79
2023/03/11 01:32:41;;;;;;;3.85;0.93;;;1.10;99.90;;;;;;5119030;27;20881;-79
2023/03/11 01:35:09;;;;;;;3.90;1.08;;;1.60;99.90;;;;;;5114837;27;20137;-79
2023/03/11 01:37:34;;;;;;;5.35;0.98;;;1.10;99.90;;;;;;5119375;27;20034;-78
2023/03/11 01:40:00;;;;;;;3.40;0.93;;;2.10;99.90;;;;;;5089820;27;20041;-78
2023/03/11 01:42:26;;;;;;;3.78;0.75;;;1.20;99.90;;;;;;5101194;27;20394;-78
2023/03/11 01:44:51;;;;;;;4.18;0.80;;;1.90;99.90;;;;;;5119264;27;20506;-78
2023/03/11 01:47:38;;;;;;;4.15;0.90;;;1.30;99.90;;;;;;5107303;27;20057;-78
2023/03/11 01:50:09;;;;;;;2.85;1.00;;;1.30;99.90;;;;;;5118779;27;20410;-78
2023/03/11 01:52:35;;;;;;;4.35;0.80;;;1.30;99.90;;;;;;5119805;27;20054;-79
2023/03/11 01:55:01;;;;;;;3.13;0.80;;;2.30;99.90;;;;;;5133893;27;20095;-79
2023/03/11 01:57:27;;;;;;;3.97;0.90;;;1.30;99.90;;;;;;5112293;27;20082;-79
2023/03/11 01:59:57;;;;;;;3.15;1.00;;;1.30;99.90;;;;;;5105853;27;20050;-79
2023/03/11 02:02:30;;;;;;;7.65;1.08;;;1.20;99.90;;;;;;5128170;27;20038;-79
2023/03/11 02:04:58;;;;;;;3.67;0.77;;;1.20;99.90;;;;;;5138928;27;20075;-79
2023/03/11 02:07:24;;;;;;;7.53;1.08;;;2.50;99.90;;;;;;5109750;27;20452;-78
2023/03/11 02:09:49;;;;;;;1.75;0.77;;;1.30;99.90;;;;;;5136811;27;20113;-79
2023/03/11 02:12:15;;;;;;;2.08;0.70;;;1.10;99.90;;;;;;5105986;27;20054;-79
2023/03/11 02:14:50;;;;;;;2.40;0.88;;;1.50;99.90;;;;;;5136992;27;20901;-78
2023/03/11 02:17:17;;;;;;;2.80;0.90;;;1.00;99.90;;;;;;5128054;27;20133;-79
2023/03/11 02:20:07;;;;;;;2.08;0.70;;;1.40;99.90;;;;;;5134945;27;20053;-78
2023/03/11 02:22:34;;;;;;;3.67;0.68;;;1.00;99.90;;;;;;5126855;27;20539;-78
2023/03/11 02:25:10;;;;;;;4.95;0.90;;;1.10;99.90;;;;;;5104578;27;20047;-78
2023/03/11 02:27:40;;;;;;;3.22;0.80;;;0.90;99.90;;;;;;5117241;27;20042;-79
2023/03/11 02:30:07;;;;;;;3.35;0.88;;;1.10;99.90;;;;;;5137341;27;20104;-78
2023/03/11 02:32:34;;;;;;;2.65;0.70;;;0.90;99.90;;;;;;5121688;27;20518;-79
2023/03/11 02:34:59;;;;;;;4.88;0.80;;;1.60;99.90;;;;;;5100670;27;20046;-79
2023/03/11 02:37:25;;;;;;;3.58;0.80;;;0.80;99.90;;;;;;5104466;27;20353;-78
2023/03/11 02:39:53;;;;;;;2.17;0.90;;;1.90;99.90;;;;;;5121260;27;20050;-78
2023/03/11 02:42:30;;;;;;;2.75;0.70;;;0.80;99.90;;;;;;5120867;27;20069;-78
2023/03/11 02:45:07;;;;;;;3.70;0.60;;;2.30;99.90;;;;;;5119973;27;20041;-79
2023/03/11 02:47:36;;;;;;;2.38;0.80;;;0.80;99.90;;;;;;5123650;27;20072;-79
2023/03/11 02:50:02;;;;;;;2.22;0.60;;;0.80;99.90;;;;;;5137248;27;20051;-79
2023/03/11 02:52:30;;;;;;;2.08;1.10;;;0.80;99.90;;;;;;5129010;27;20047;-79
2023/03/11 02:54:56;;;;;;;3.03;0.80;;;0.70;99.90;;;;;;5118216;27;20034;-78
2023/03/11 02:57:22;;;;;;;3.63;0.93;;;0.70;99.90;;;;;;5137554;27;20047;-78
2023/03/11 02:59:47;;;;;;;5.25;0.80;;;0.80;99.90;;;;;;5126029;27;20137;-77
2023/03/11 03:02:15;;;;;;;5.93;0.93;;;1.70;99.90;;;;;;5142644;27;20653;-77
2023/03/11 03:04:41;;;;;;;4.47;0.82;;;0.70;99.90;;;;;;5133241;27;20137;-78
2023/03/11 03:07:07;;;;;;;6.00;1.02;;;-0.90;99.90;;;;;;5131592;27;20179;-78
2023/03/11 03:09:34;;;;;;;2.90;1.02;;;0.70;99.90;;;;;;5127182;27;20604;-79
2023/03/11 03:12:00;;;;;;;1.50;0.70;;;1.20;99.90;;;;;;5110050;27;20051;-78
2023/03/11 03:14:26;;;;;;;2.72;0.80;;;0.70;99.90;;;;;;5141612;27;20049;-78
2023/03/11 03:16:53;;;;;;;2.28;0.70;;;0.70;99.90;;;;;;5126203;27;20038;-78
2023/03/11 03:19:18;;;;;;;2.95;0.80;;;0.70;99.90;;;;;;5121750;27;20039;-78
2023/03/11 03:21:44;;;;;;;5.80;1.27;;;0.90;99.90;;;;;;5101540;27;20046;-78
2023/03/11 03:24:10;;;;;;;3.45;1.00;;;0.90;99.90;;;;;;5119154;27;20067;-79
2023/03/11 03:26:36;;;;;;;2.83;0.70;;;0.60;99.90;;;;;;5136488;27;20049;-79
2023/03/11 03:29:02;;;;;;;4.60;0.98;;;0.90;99.90;;;;;;5094288;27;20039;-78
2023/03/11 03:31:28;;;;;;;1.42;0.88;;;0.60;99.90;;;;;;5122318;27;20058;-78
2023/03/11 03:33:54;;;;;;;0.88;0.60;;;1.80;99.90;;;;;;5120435;27;20555;-78
2023/03/11 03:36:19;;;;;;;4.82;0.90;;;0.90;99.90;;;;;;5144785;27;20046;-79
2023/03/11 03:38:45;;;;;;;3.88;0.80;;;1.40;99.90;;;;;;5104872;27;20050;-78
2023/03/11 03:41:14;;;;;;;3.25;0.75;;;1.80;99.90;;;;;;5089234;27;20053;-78
2023/03/11 03:43:40;;;;;;;4.35;0.80;;;0.60;99.90;;;;;;5134965;27;20053;-78
2023/03/11 03:46:06;;;;;;;4.88;0.90;;;1.40;99.90;;;;;;5110108;27;20506;-78
2023/03/11 03:48:33;;;;;;;4.47;1.13;;;1.00;99.90;;;;;;5105436;27;20034;-78
2023/03/11 03:51:03;;;;;;;3.22;0.88;;;0.70;99.90;;;;;;5123992;27;20047;-79
2023/03/11 03:53:30;;;;;;;2.30;1.10;;;0.60;99.90;;;;;;5137847;27;20104;-78
2023/03/11 03:55:55;;;;;;;3.42;1.08;;;1.10;99.90;;;;;;5119484;27;20042;-78
2023/03/11 03:58:21;;;;;;;5.28;1.20;;;0.70;99.90;;;;;;5103078;27;20795;-78
2023/03/11 04:00:47;;;;;;;2.55;0.93;;;0.50;99.90;;;;;;5122803;27;20043;-78
2023/03/11 04:03:12;;;;;;;4.28;0.82;;;1.80;99.90;;;;;;5136361;27;20479;-78
2023/03/11 04:05:38;;;;;;;4.03;1.00;;;0.50;99.90;;;;;;5118451;27;20146;-78
2023/03/11 04:08:04;;;;;;;3.58;1.10;;;0.70;99.90;;;;;;5119852;27;20263;-78
2023/03/11 04:10:29;;;;;;;3.75;1.00;;;0.50;99.90;;;;;;5111552;27;20479;-78
2023/03/11 04:12:55;;;;;;;3.50;1.10;;;1.20;99.90;;;;;;5093886;27;20775;-78
2023/03/11 04:15:21;;;;;;;4.38;1.13;;;0.90;99.90;;;;;;5111973;27;21783;-78
2023/03/11 04:17:47;;;;;;;4.88;1.08;;;0.50;99.90;;;;;;5104341;27;20495;-78
2023/03/11 04:20:12;;;;;;;3.85;1.05;;;0.40;99.90;;;;;;5121858;27;20034;-78
2023/03/11 04:22:38;;;;;;;8.35;2.05;;;1.50;99.90;;;;;;5118716;27;20156;-79
2023/03/11 04:25:04;;;;;;;3.30;1.35;;;0.80;99.90;;;;;;5126527;27;20050;-78
2023/03/11 04:27:30;;;;;;;4.78;0.80;;;0.40;99.90;;;;;;5112927;27;20628;-78
2023/03/11 04:29:56;;;;;;;2.35;0.73;;;0.40;99.90;;;;;;5138426;27;20058;-77
2023/03/11 04:32:22;;;;;;;2.60;0.90;;;0.40;99.90;;;;;;5111472;27;20081;-79
2023/03/11 04:34:48;;;;;;;3.40;1.00;;;1.60;99.90;;;;;;5121305;27;20046;-78
2023/03/11 04:37:13;;;;;;;3.00;0.95;;;0.60;99.90;;;;;;5119913;27;20104;-78
2023/03/11 04:39:39;;;;;;;4.10;0.88;;;0.30;99.90;;;;;;5116994;27;20065;-79
2023/03/11 04:42:05;;;;;;;2.65;0.70;;;0.20;99.90;;;;;;5118914;27;21549;-78
2023/03/11 04:44:34;;;;;;;2.55;0.80;;;0.20;99.90;;;;;;5110149;27;20038;-80
2023/03/11 04:47:00;;;;;;;6.05;1.27;;;0.20;99.90;;;;;;5132649;27;20077;-78
2023/03/11 04:49:26;;;;;;;2.50;0.90;;;0.50;99.90;;;;;;5116373;27;20500;-78
2023/03/11 04:51:51;;;;;;;5.05;1.15;;;0.20;99.90;;;;;;5132105;27;20145;-78
2023/03/11 04:54:17;;;;;;;6.22;0.90;;;0.10;99.90;;;;;;5118181;27;20053;-78
2023/03/11 04:56:43;;;;;;;3.28;1.30;;;1.10;99.90;;;;;;5134207;27;20099;-78
2023/03/11 04:59:09;;;;;;;3.28;0.90;;;0.10;99.90;;;;;;5123618;27;20050;-77
2023/03/11 05:01:34;;;;;;;4.68;0.85;;;1.50;99.90;;;;;;5116133;27;20483;-78
2023/03/11 05:04:00;;;;;;;6.63;1.42;;;0.00;99.90;;;;;;5119829;27;20514;-78
2023/03/11 05:06:26;;;;;;;2.67;0.80;;;0.50;99.90;;;;;;5103207;27;20782;-79
2023/03/11 05:08:51;;;;;;;2.15;0.60;;;1.30;99.90;;;;;;5122253;27;20045;-78
2023/03/11 05:11:17;;;;;;;2.33;0.90;;;-0.10;99.90;;;;;;5119920;27;20528;-77
2023/03/11 05:13:43;;;;;;;1.95;0.77;;;-0.10;99.90;;;;;;5107808;27;20515;-78
2023/03/11 05:16:09;;;;;;;2.00;0.82;;;-0.10;99.90;;;;;;5117190;27;20039;-78
2023/03/11 05:18:35;;;;;;;2.70;0.90;;;-0.20;99.90;;;;;;5117752;27;20050;-80
2023/03/11 05:21:01;;;;;;;3.83;1.20;;;-0.10;99.90;;;;;;5119833;27;20276;-77
2023/03/11 05:23:27;;;;;;;1.67;0.75;;;-0.30;99.90;;;;;;5136294;27;20185;-79
2023/03/11 05:25:52;;;;;;;2.90;1.02;;;-0.30;99.90;;;;;;5131158;27;20475;-77
2023/03/11 05:28:18;;;;;;;1.63;0.85;;;1.00;99.90;;;;;;5121688;27;20054;-77
2023/03/11 05:30:44;;;;;;;2.92;0.95;;;0.40;99.90;;;;;;5120329;27;20082;-78
2023/03/11 05:33:10;;;;;;;2.83;0.70;;;0.30;99.90;;;;;;5103476;27;20043;-77
2023/03/11 05:35:35;;;;;;;1.73;0.93;;;-0.50;99.90;;;;;;5118071;27;20268;-78
2023/03/11 05:38:01;;;;;;;3.15;1.00;;;-0.50;99.90;;;;;;5103506;27;20226;-77
2023/03/11 05:40:27;;;;;;;4.82;1.10;;;-0.60;99.90;;;;;;5110461;27;20073;-77
2023/03/11 05:42:53;;;;;;;2.22;1.10;;;-0.60;99.90;;;;;;5104611;27;20041;-77
2023/03/11 05:45:19;;;;;;;4.18;1.00;;;1.00;99.90;;;;;;5101562;27;20043;-77
2023/03/11 05:47:45;;;;;;;2.83;1.02;;;0.60;99.90;;;;;;5116729;27;20772;-78
2023/03/11 05:50:11;;;;;;;2.40;0.80;;;-0.10;99.90;;;;;;5132416;27;20107;-77
2023/03/11 05:52:37;;;;;;;3.63;0.90;;;0.30;99.90;;;;;;5120232;27;20070;-77
2023/03/11 05:55:03;;;;;;;1.90;1.30;;;-0.80;99.90;;;;;;5115549;27;20105;-77
2023/03/11 05:57:29;;;;;;;2.20;0.80;;;-0.80;99.90;;;;;;5121604;27;20133;-78
2023/03/11 05:59:54;;;;;;;2.28;1.00;;;-0.50;99.90;;;;;;5119659;27;20138;-77
2023/03/11 06:02:20;;;;;;;3.90;0.93;;;-0.90;99.90;;;;;;5120553;27;20058;-77
2023/03/11 06:04:46;;;;;;;5.20;1.10;;;-0.50;99.90;;;;;;5124523;27;20046;-78
2023/03/11 06:07:14;;;;;;;3.78;0.90;;;-0.40;99.90;;;;;;5110189;27;20073;-77
2023/03/11 06:09:40;;;;;;;2.55;0.70;;;-1.00;99.90;;;;;;5126682;27;20045;-77
2023/03/11 06:12:06;;;;;;;4.95;1.67;;;-1.10;99.90;;;;;;5103923;27;20537;-77
2023/03/11 06:14:31;;;;;;;2.28;0.90;;;-1.10;99.90;;;;;;5133197;27;20039;-77
2023/03/11 06:16:58;;;;;;;2.78;1.00;;;-0.30;99.90;;;;;;5133567;27;20098;-77
2023/03/11 06:19:24;;;;;;;4.35;0.80;;;-1.10;99.90;;;;;;5103504;27;20042;-77
2023/03/11 06:21:50;;;;;;;1.90;0.90;;;-1.10;99.90;;;;;;5120110;27;20049;-77
2023/03/11 06:24:17;;;;;;;4.15;1.10;;;0.30;99.90;;;;;;5102132;27;20538;-77
2023/03/11 06:26:43;;;;;;;3.55;1.10;;;-0.30;99.90;;;;;;5122228;27;20054;-76
2023/03/11 06:29:12;;;;;;;6.63;1.20;;;-0.30;99.90;;;;;;5115731;27;20061;-78
2023/03/11 06:31:38;;;;;;;4.60;1.00;;;-1.10;99.90;;;;;;5116744;27;20054;-77
2023/03/11 06:34:05;;;;;;;3.83;1.10;;;-0.90;99.90;;;;;;5132891;27;20039;-75
2023/03/11 06:36:31;;;;;;;3.20;1.13;;;-1.10;99.90;;;;;;5124879;27;20046;-76
2023/03/11 06:38:57;;;;;;;3.20;0.80;;;-1.10;99.90;;;;;;5119750;27;20045;-76
2023/03/11 06:41:23;;;;;;;3.38;1.20;;;-1.10;99.90;;;;;;5119774;27;20058;-77
2023/03/11 06:43:50;;;;;;;7.18;1.10;;;0.60;99.90;;;;;;5130198;27;20126;-77
2023/03/11 06:46:18;;;;;;;2.65;1.20;;;-0.40;99.90;;;;;;5133549;27;20143;-76
2023/03/11 06:48:45;;;;;;;3.65;1.05;;;-1.10;99.90;;;;;;5139099;27;20038;-77
2023/03/11 06:51:11;;;;;;;3.80;1.00;;;0.80;99.90;;;;;;5137302;27;20053;-77
2023/03/11 06:53:38;;;;;;;4.18;1.60;;;-1.10;99.90;;;;;;5116820;27;21731;-76
2023/03/11 06:56:10;;;;;;;3.00;1.40;;;-0.60;99.90;;;;;;5127800;27;20135;-79
2023/03/11 06:58:41;;;;;;;3.33;1.05;;;-1.00;99.90;;;;;;5121550;27;20707;-81
2023/03/11 07:01:11;;;;;;;4.13;1.17;;;-2.60;99.90;;;;;;5125015;27;20048;-79
2023/03/11 07:03:36;;;;;;;2.80;1.05;;;0.20;99.90;;;;;;5114869;27;20483;-79
2023/03/11 07:06:03;;;;;;;3.92;2.58;;;0.70;99.90;;;;;;5116843;27;20079;-79
2023/03/11 07:08:30;;;;;;;3.25;1.30;;;-0.80;99.90;;;;;;5112462;27;20035;-79
2023/03/11 07:11:20;;;;;;;4.40;0.95;;;0.90;99.90;;;;;;5118167;27;20050;-79
2023/03/11 07:13:46;;;;;;;2.20;0.85;;;0.90;99.90;;;;;;5135464;27;20090;-78
2023/03/11 07:16:18;;;;;;;6.18;1.33;;;1.40;99.90;;;;;;5084511;27;20984;-80
2023/03/11 07:18:45;;;;;;;6.45;1.10;;;0.20;99.90;;;;;;5116779;27;20118;-80
2023/03/11 07:21:14;;;;;;;3.80;1.83;;;0.60;99.90;;;;;;5105468;27;20042;-77
2023/03/11 07:23:40;;;;;;;5.10;1.10;;;-0.20;99.90;;;;;;5117072;27;20605;-75
2023/03/11 07:26:14;;;;;;;2.70;0.90;;;1.60;99.90;;;;;;5132008;27;20046;-76
2023/03/11 07:28:40;;;;;;;6.10;1.20;;;1.00;99.90;;;;;;5135607;27;20046;-75
2023/03/11 07:31:18;;;;;;;4.07;1.42;;;0.30;99.90;;;;;;5126149;27;20182;-79
2023/03/11 07:33:44;;;;;;;9.05;1.73;;;1.00;99.90;;;;;;5129670;27;20085;-79
2023/03/11 07:36:15;;;;;;;7.38;1.35;;;0.50;99.90;;;;;;5117793;27;20041;-79
2023/03/11 07:38:42;;;;;;;4.85;2.38;;;1.00;99.90;;;;;;5132350;27;20059;-79
2023/03/11 07:41:10;;;;;;;6.63;1.38;;;0.70;99.90;;;;;;5113814;27;20057;-79
2023/03/11 07:43:36;;;;;;;2.90;1.10;;;0.90;99.90;;;;;;5103270;27;20091;-79
2023/03/11 07:46:03;;;;;;;5.43;1.13;;;1.00;99.90;;;;;;5131541;27;20073;-80
2023/03/11 07:48:29;;;;;;;3.97;1.65;;;1.10;99.90;;;;;;5117406;27;20042;-80
2023/03/11 07:51:07;;;;;;;3.67;1.55;;;1.20;99.90;;;;;;5114758;27;20042;-80
2023/03/11 07:53:33;;;;;;;4.85;1.40;;;1.20;99.90;;;;;;5132972;27;20122;-81
2023/03/11 07:56:00;;;;;;;5.30;1.42;;;1.30;99.90;;;;;;5123943;27;20050;-79
2023/03/11 07:58:26;;;;;;;4.30;1.45;;;1.50;99.90;;;;;;5102719;27;20037;-79
2023/03/11 08:00:53;;;;;;;4.45;1.50;;;1.50;99.90;;;;;;5121490;27;20095;-78
2023/03/11 08:03:19;;;;;;;4.13;2.00;;;1.60;99.90;;;;;;5117532;27;20130;-77
2023/03/11 08:05:44;;;;;;;5.43;1.23;;;1.80;99.90;;;;;;5132153;27;20375;-78
2023/03/11 08:08:10;;;;;;;7.43;1.15;;;1.80;99.90;;;;;;5125911;27;20047;-77
2023/03/11 08:10:37;;;;;;;6.03;1.27;;;2.00;99.90;;;;;;5133704;27;20066;-80
2023/03/11 08:13:03;;;;;;;3.20;1.10;;;2.10;99.90;;;;;;5139149;27;20069;-80
2023/03/11 08:15:28;;;;;;;2.95;1.00;;;2.20;99.90;;;;;;5132704;27;20129;-78
2023/03/11 08:17:54;;;;;;;4.65;1.15;;;2.40;99.90;;;;;;5106306;27;20061;-79
2023/03/11 08:20:20;;;;;;;7.85;1.75;;;2.50;99.90;;;;;;5080275;27;20065;-78
2023/03/11 08:22:46;;;;;;;2.78;1.23;;;2.80;99.90;;;;;;5114864;27;20514;-78
2023/03/11 08:25:11;;;;;;;3.75;0.80;;;2.90;99.90;;;;;;5113746;27;20038;-79
2023/03/11 08:27:37;;;;;;;3.47;0.90;;;3.10;99.90;;;;;;5115538;27;20068;-80
2023/03/11 08:30:04;;;;;;;6.07;1.23;;;3.40;99.90;;;;;;5117619;27;20050;-80
2023/03/11 08:32:30;;;;;;;10.32;1.15;;;3.60;99.90;;;;;;5119240;27;20462;-80
2023/03/11 08:34:57;;;;;;;5.32;0.80;;;3.80;99.90;;;;;;5120049;27;20117;-81
2023/03/11 08:37:22;;;;;;;4.35;1.30;;;3.90;99.90;;;;;;5103693;27;20054;-78
2023/03/11 08:39:48;;;;;;;5.10;1.00;;;4.10;99.90;;;;;;5124104;27;20038;-78
2023/03/11 08:42:15;;;;;;;3.22;0.70;;;4.30;99.90;;;;;;5100337;27;20104;-80
2023/03/11 08:44:41;;;;;;;3.60;0.90;;;4.40;99.90;;;;;;5118912;27;20071;-80
2023/03/11 08:47:07;;;;;;;3.63;1.83;;;4.60;99.90;;;;;;5132791;27;20443;-79
2023/03/11 08:49:33;;;;;;;7.13;1.27;;;4.80;99.90;;;;;;5129789;27;20042;-79
2023/03/11 08:52:00;;;;;;;2.90;0.93;;;5.00;99.90;;;;;;5118410;27;20046;-83
2023/03/11 08:54:26;;;;;;;4.18;0.80;;;5.10;99.90;;;;;;5114257;27;20157;-81
2023/03/11 08:56:52;;;;;;;2.75;0.80;;;5.10;99.90;;;;;;5115465;27;20393;-82
2023/03/11 08:59:18;;;;;;;3.67;1.13;;;5.20;99.90;;;;;;5107449;27;20030;-82
2023/03/11 09:01:45;;;;;;;1.90;0.80;;;5.20;99.90;;;;;;5131460;27;20046;-78
2023/03/11 09:04:11;;;;;;;2.95;0.82;;;5.30;99.90;;;;;;5116688;27;20042;-83
2023/03/11 09:06:43;;;;;;;4.30;0.90;;;5.30;99.90;;;;;;5102697;27;20038;-82
2023/03/11 09:09:12;;;;;;;3.47;0.90;;;5.40;99.90;;;;;;5135962;27;20038;-81
2023/03/11 09:11:39;;;;;;;5.55;1.35;;;5.50;99.90;;;;;;5105760;27;20046;-81
2023/03/11 09:14:05;;;;;;;2.78;0.90;;;5.60;99.90;;;;;;5119707;27;20111;-80
2023/03/11 09:16:30;;;;;;;3.60;0.93;;;5.60;99.90;;;;;;5090694;27;20078;-80
2023/03/11 09:18:59;;;;;;;5.43;1.20;;;5.70;99.90;;;;;;5124697;27;20046;-81
2023/03/11 09:21:25;;;;;;;6.82;1.05;;;5.70;99.90;;;;;;5107598;27;20038;-82
2023/03/11 09:23:51;;;;;;;3.65;0.85;;;5.70;99.90;;;;;;5126074;27;20049;-81
2023/03/11 09:26:16;;;;;;;4.70;1.00;;;5.80;99.90;;;;;;5119053;27;20059;-81
2023/03/11 09:28:47;;;;;;;4.45;0.80;;;5.80;99.90;;;;;;5118863;27;20039;-81
2023/03/11 09:31:14;;;;;;;2.70;0.73;;;4.50;99.90;;;;;;5098084;27;20164;-80
2023/03/11 09:33:41;;;;;;;6.20;0.82;;;5.80;99.90;;;;;;5121571;27;20053;-80
2023/03/11 09:36:07;;;;;;;2.70;0.77;;;5.80;99.90;;;;;;5111353;27;20143;-80
2023/03/11 09:38:33;;;;;;;5.22;1.20;;;6.50;99.90;;;;;;5133119;27;20054;-79
2023/03/11 09:41:04;;;;;;;3.92;1.17;;;5.80;99.90;;;;;;5091404;27;20053;-79
2023/03/11 09:43:58;;;;;;;7.93;1.10;;;6.00;99.90;;;;;;5132091;27;20103;-79
2023/03/11 09:46:26;;;;;;;3.75;0.73;;;5.90;99.90;;;;;;5141345;27;20169;-78
2023/03/11 09:49:23;;;;;;;4.88;1.30;;;6.00;99.90;;;;;;5129254;27;20593;-78
2023/03/11 09:52:05;;;;;;;3.70;1.42;;;6.20;99.90;;;;;;5112196;27;20038;-80
2023/03/11 09:54:39;;;;;;;3.13;1.10;;;6.30;99.90;;;;;;5132771;27;20753;-79
2023/03/11 09:57:11;;;;;;;3.92;1.05;;;6.40;99.90;;;;;;5132979;27;20038;-82
2023/03/11 09:59:39;;;;;;;2.33;0.73;;;6.50;99.90;;;;;;5135594;27;20073;-80
2023/03/11 10:02:05;;;;;;;5.28;1.10;;;6.60;99.90;;;;;;5120172;27;20049;-80
2023/03/11 10:04:40;;;;;;;2.10;0.88;;;6.70;99.90;;;;;;5113310;27;20066;-80
2023/03/11 10:07:16;;;;;;;4.32;0.90;;;6.10;99.90;;;;;;5117263;27;21327;-80
2023/03/11 10:09:45;;;;;;;;;;;7.10;99.90;;;;;;5131213;27;20112;-80
2023/03/11 10:12:29;;;;;;;3.20;0.73;;;7.10;99.90;;;;;;5131142;27;19932;-80
2023/03/11 10:15:13;;;;;;;4.78;0.80;;;7.20;99.90;;;;;;5131833;27;20042;-81
2023/03/11 10:17:58;;;;;;;3.10;0.80;;;7.40;99.90;;;;;;5121028;27;20046;-79
2023/03/11 10:20:36;;;;;;;4.72;1.00;;;7.40;99.90;;;;;;5120008;27;20047;-78
2023/03/11 10:23:11;;;;;;;4.18;1.02;;;7.30;99.90;;;;;;5126242;27;20510;-79
2023/03/11 10:25:58;;;;;;;4.78;0.90;;;7.40;99.90;;;;;;5118082;27;20492;-79
2023/03/11 10:28:35;;;;;;;3.33;1.20;;;7.20;99.90;;;;;;5119275;27;20045;-78
2023/03/11 10:31:17;;;;;;;3.78;1.27;;;7.20;99.90;;;;;;5151415;27;20075;-79
2023/03/11 10:33:57;;;;;;;2.55;0.98;;;7.20;99.90;;;;;;5134533;27;20475;-79
2023/03/11 10:36:33;;;;;;;3.88;1.02;;;7.10;99.90;;;;;;5134528;27;20380;-79
2023/03/11 10:39:05;;;;;;;2.50;0.53;;;7.00;99.90;;;;;;5119326;27;20436;-78
2023/03/11 10:41:52;;;;;;;3.50;0.90;;;7.10;99.90;;;;;;5133743;27;20050;-79
2023/03/11 10:44:34;;;;;;;5.43;1.10;;;7.10;99.90;;;;;;5119315;27;20050;-78
2023/03/11 10:47:01;;;;;;;2.75;0.80;;;7.10;99.90;;;;;;5133415;27;20043;-79
2023/03/11 10:49:27;;;;;;;5.28;0.95;;;7.00;99.90;;;;;;5134716;27;20039;-79
2023/03/11 10:51:55;;;;;;;6.10;1.17;;;7.00;99.90;;;;;;5143740;27;20102;-78
2023/03/11 10:54:42;;;;;;;2.28;0.90;;;7.00;99.90;;;;;;5132194;27;20275;-80
2023/03/11 10:57:26;;;;;;;1.27;0.70;;;7.10;99.90;;;;;;5118115;27;20046;-79
2023/03/11 10:59:57;;;;;;;1.77;1.00;;;7.20;99.90;;;;;;5118286;27;20050;-82
2023/03/11 11:02:32;;;;;;;2.28;0.77;;;7.40;99.90;;;;;;5132533;27;20482;-82
2023/03/11 11:05:16;;;;;;;7.47;1.03;;;7.70;99.90;;;;;;5117844;27;20049;-79
2023/03/11 11:07:45;;;;;;;3.78;0.90;;;7.90;99.90;;;;;;5132440;27;20287;-79
2023/03/11 11:10:11;;;;;;;2.22;0.70;;;8.10;99.90;;;;;;5120998;27;20062;-80
2023/03/11 11:12:56;;;;;;;6.90;0.90;;;8.30;99.90;;;;;;5120181;27;20604;-84
2023/03/11 11:15:26;;;;;;;8.93;0.93;;;8.20;99.90;;;;;;5129369;27;20593;-82
2023/03/11 11:17:55;;;;;;;3.40;0.88;;;8.60;99.90;;;;;;5120799;27;20038;-82
2023/03/11 11:20:23;;;;;;;3.13;0.90;;;8.60;99.90;;;;;;5115364;27;20050;-79
2023/03/11 11:22:53;;;;;;;1.75;0.77;;;8.60;99.90;;;;;;5118313;27;20046;-83
2023/03/11 11:25:57;;;;;;;3.35;0.73;;;8.50;99.90;;;;;;5114824;27;20034;-79
2023/03/11 11:28:23;;;;;;;4.70;0.95;;;8.50;99.90;;;;;;5104227;27;20418;-81
2023/03/11 11:30:57;;;;;;;3.15;0.63;;;8.50;99.90;;;;;;5100893;27;20071;-81
2023/03/11 11:33:25;;;;;;;3.13;1.35;;;8.40;99.90;;;;;;5124495;27;20038;-80
2023/03/11 11:35:54;;;;;;;6.35;0.80;;;8.30;99.90;;;;;;5134414;27;20043;-82
2023/03/11 11:38:23;;;;;;;4.18;0.80;;;8.10;99.90;;;;;;5117220;27;20697;-81
2023/03/11 11:40:50;;;;;;;4.60;0.90;;;8.30;99.90;;;;;;5118352;27;20056;-81
2023/03/11 11:43:31;;;;;;;4.13;0.85;;;8.20;99.90;;;;;;5104778;27;20046;-82
2023/03/11 11:46:06;;;;;;;6.28;0.98;;;8.30;99.90;;;;;;5123718;27;20073;-81
2023/03/11 11:48:58;;;;;;;3.20;0.80;;;9.00;99.90;;;;;;5134984;27;20725;-79
2023/03/11 11:51:53;;;;;;;2.80;0.70;;;8.40;99.90;;;;;;5114466;27;20530;-79
2023/03/11 11:54:41;;;;;;;4.82;0.80;;;8.70;99.90;;;;;;5086150;27;20122;-80
2023/03/11 11:57:15;;;;;;;5.57;0.85;;;9.50;99.90;;;;;;5112484;27;20078;-79
2023/03/11 11:59:41;;;;;;;2.85;0.82;;;10.20;99.90;;;;;;5116627;27;20161;-80
2023/03/11 12:02:45;;;;;;;3.70;0.85;;;10.40;99.90;;;;;;5117325;27;20046;-79
2023/03/11 12:05:16;;;;;;;2.13;0.88;;;10.10;99.90;;;;;;5119264;27;20084;-79
2023/03/11 12:07:58;;;;;;;3.85;0.70;;;9.80;99.90;;;;;;5124849;27;20630;-79
2023/03/11 12:10:32;;;;;;;2.40;0.70;;;9.70;99.90;;;;;;5141566;27;20057;-79
2023/03/11 12:13:17;;;;;;;3.42;0.80;;;9.80;99.90;;;;;;5115121;27;21039;-79
2023/03/11 12:15:49;;;;;;;1.55;0.70;;;10.40;99.90;;;;;;5118597;27;20045;-79
2023/03/11 12:18:44;;;;;;;3.17;0.90;;;10.80;99.90;;;;;;5114116;27;20047;-80
2023/03/11 12:21:30;;;;;;;2.53;0.70;;;11.30;99.90;;;;;;5109075;27;20057;-78
2023/03/11 12:24:20;;;;;;;2.13;0.90;;;11.70;99.90;;;;;;5132081;27;20042;-80
2023/03/11 12:26:49;;;;;;;2.45;0.73;;;11.90;99.90;;;;;;5117563;27;20575;-80
2023/03/11 12:29:31;;;;;;;4.05;0.77;;;12.10;99.90;;;;;;5133152;27;20129;-79
2023/03/11 12:32:00;;;;;;;3.90;0.80;;;11.90;99.90;;;;;;5119249;27;20045;-81
2023/03/11 12:34:28;;;;;;;3.50;0.90;;;12.30;99.90;;;;;;5117992;27;20046;-80
2023/03/11 12:37:02;;;;;;;2.90;0.80;;;12.30;99.90;;;;;;5121026;27;20146;-78
2023/03/11 12:39:33;;;;;;;2.70;1.02;;;12.40;99.90;;;;;;5123298;27;20050;-78
2023/03/11 12:42:20;;;;;;;3.20;0.70;;;12.50;99.90;;;;;;5124719;27;20074;-81
2023/03/11 12:44:47;;;;;;;5.70;0.90;;;12.60;99.90;;;;;;5114893;27;20046;-83
2023/03/11 12:47:13;;;;;;;4.03;0.90;;;12.60;99.90;;;;;;5118621;27;20192;-78
2023/03/11 12:49:42;;;;;;;4.60;0.88;;;12.50;99.90;;;;;;5132165;27;20035;-79
2023/03/11 12:52:08;;;;;;;2.08;0.80;;;12.90;99.90;;;;;;5120433;27;20054;-79
2023/03/11 12:54:36;;;;;;;2.05;0.70;;;12.60;99.90;;;;;;5123157;27;20042;-79
2023/03/11 12:57:04;;;;;;;4.32;0.75;;;12.00;99.90;;;;;;5126293;27;20061;-79
2023/03/11 12:59:51;;;;;;;3.83;0.95;;;11.80;99.90;;;;;;5129896;27;20043;-78
2023/03/11 13:02:41;;;;;;;1.98;0.63;;;10.90;99.90;;;;;;5134344;27;20058;-79
2023/03/11 13:05:28;;;;;;;3.42;0.80;;;9.90;99.90;;;;;;5138104;27;20038;-79
2023/03/11 13:08:30;;;;;;;3.42;0.85;;;8.90;99.90;;;;;;5131859;27;20046;-78